createdAt,value
2022-09-12T00:00:09.494Z,10.3
2022-09-12T00:03:09.496Z,10.3
2022-09-12T00:06:09.484Z,10.2
2022-09-12T00:09:09.502Z,10.2
2022-09-12T00:12:09.458Z,10.1
2022-09-12T00:15:09.453Z,10.1
2022-09-12T00:18:09.463Z,9.9
2022-09-12T00:21:09.519Z,9.7
2022-09-12T00:24:09.477Z,9.6
2022-09-12T00:27:09.497Z,9.6
2022-09-12T00:30:09.480Z,9.6
2022-09-12T00:33:09.469Z,9.6
2022-09-12T00:36:09.479Z,9.6
2022-09-12T00:39:09.428Z,9.5
2022-09-12T00:42:09.462Z,9.5
2022-09-12T00:45:09.456Z,9.4
2022-09-12T00:48:09.457Z,9.4
2022-09-12T00:51:09.486Z,9.6
2022-09-12T00:54:09.462Z,9.6
2022-09-12T00:57:09.554Z,9.6
2022-09-12T01:00:09.500Z,9.4
2022-09-12T01:03:09.480Z,9.4
2022-09-12T01:06:09.467Z,9.5
2022-09-12T01:09:09.452Z,9.3
2022-09-12T01:12:09.456Z,9.3
2022-09-12T01:15:09.468Z,9.2
2022-09-12T01:18:09.496Z,9.1
2022-09-12T01:21:09.485Z,9.1
2022-09-12T01:24:09.493Z,9.1
2022-09-12T01:27:09.463Z,9.2
2022-09-12T01:30:09.482Z,9.1
2022-09-12T01:33:09.506Z,9.2
2022-09-12T01:36:09.460Z,9.3
2022-09-12T01:39:09.480Z,9.3
2022-09-12T01:42:09.462Z,9.3
2022-09-12T01:45:09.474Z,9.3
2022-09-12T01:48:09.427Z,9.2
2022-09-12T01:51:09.428Z,9.1
2022-09-12T01:54:09.470Z,9.1
2022-09-12T01:57:09.439Z,8.8
2022-09-12T02:00:09.493Z,8.8
2022-09-12T02:03:09.417Z,8.8
2022-09-12T02:06:09.491Z,8.8
2022-09-12T02:09:09.461Z,8.8
2022-09-12T02:12:09.467Z,8.6
2022-09-12T02:15:09.477Z,8.6
2022-09-12T02:18:09.543Z,8.6
2022-09-12T02:21:09.455Z,8.6
2022-09-12T02:24:09.466Z,8.6
2022-09-12T02:27:09.433Z,8.6
2022-09-12T02:30:09.505Z,8.5
2022-09-12T02:33:09.466Z,8.6
2022-09-12T02:36:09.525Z,8.6
2022-09-12T02:39:09.457Z,8.6
2022-09-12T02:42:09.448Z,8.7
2022-09-12T02:45:09.480Z,8.6
2022-09-12T02:48:09.485Z,8.5
2022-09-12T02:51:09.435Z,8.4
2022-09-12T02:54:09.465Z,8.3
2022-09-12T02:57:09.483Z,8.4
2022-09-12T03:00:09.559Z,8.4
2022-09-12T03:03:09.447Z,8.4
2022-09-12T03:06:09.430Z,8.5
2022-09-12T03:09:09.529Z,8.3
2022-09-12T03:12:09.536Z,8.3
2022-09-12T03:15:09.480Z,8.2
2022-09-12T03:18:09.450Z,8.2
2022-09-12T03:21:09.501Z,8.1
2022-09-12T03:24:09.512Z,7.9
2022-09-12T03:27:09.439Z,7.8
2022-09-12T03:30:09.566Z,7.9
2022-09-12T03:33:09.433Z,7.9
2022-09-12T03:36:09.458Z,8
2022-09-12T03:39:09.446Z,8
2022-09-12T03:42:09.434Z,8
2022-09-12T03:45:09.440Z,8.1
2022-09-12T03:48:09.486Z,8.1
2022-09-12T03:51:09.393Z,8.2
2022-09-12T03:54:09.501Z,8.2
2022-09-12T03:57:09.473Z,8.1
2022-09-12T04:00:09.529Z,8
2022-09-12T04:03:09.453Z,7.9
2022-09-12T04:06:09.492Z,7.9
2022-09-12T04:09:09.466Z,7.9
2022-09-12T04:12:09.519Z,7.9
2022-09-12T04:15:09.502Z,7.8
2022-09-12T04:18:15.072Z,7.7
2022-09-12T04:21:09.488Z,7.8
2022-09-12T04:24:09.529Z,7.8
2022-09-12T04:27:16.367Z,7.9
2022-09-12T04:30:09.492Z,7.9
2022-09-12T04:33:16.649Z,7.7
2022-09-12T04:36:09.512Z,7.7
2022-09-12T04:39:09.519Z,7.7
2022-09-12T04:42:09.458Z,7.7
2022-09-12T04:45:09.777Z,7.7
2022-09-12T04:48:09.435Z,7.7
2022-09-12T04:51:09.555Z,7.8
2022-09-12T04:54:09.455Z,7.9
2022-09-12T04:57:09.501Z,7.9
2022-09-12T05:00:16.124Z,7.9
2022-09-12T05:03:09.482Z,7.9
2022-09-12T05:06:09.513Z,8
2022-09-12T05:09:09.600Z,8.1
2022-09-12T05:12:14.545Z,8.1
2022-09-12T05:15:09.534Z,8
2022-09-12T05:18:09.474Z,7.9
2022-09-12T05:21:09.510Z,8
2022-09-12T05:24:09.577Z,8
2022-09-12T05:27:09.509Z,8
2022-09-12T05:30:09.769Z,8.1
2022-09-12T05:33:09.590Z,8.3
2022-09-12T05:36:09.553Z,8.4
2022-09-12T05:39:09.527Z,8.9
2022-09-12T05:42:09.518Z,9.4
2022-09-12T05:45:09.568Z,9.7
2022-09-12T05:48:09.504Z,10.1
2022-09-12T05:51:09.565Z,10.6
2022-09-12T05:54:09.671Z,11
2022-09-12T05:57:09.593Z,11.4
2022-09-12T06:00:09.659Z,11.8
2022-09-12T06:03:09.499Z,12.5
2022-09-12T06:06:09.557Z,12.8
2022-09-12T06:09:09.552Z,13.4
2022-09-12T06:12:09.639Z,13.9
2022-09-12T06:15:09.569Z,14.6
2022-09-12T06:18:09.525Z,15
2022-09-12T06:21:09.505Z,15.8
2022-09-12T06:24:09.575Z,15.9
2022-09-12T06:27:09.558Z,16.6
2022-09-12T06:30:09.579Z,16.9
2022-09-12T06:33:09.550Z,17
2022-09-12T06:36:14.999Z,17.4
2022-09-12T06:39:10.291Z,17.8
2022-09-12T06:42:09.675Z,18
2022-09-12T06:45:09.581Z,17.4
2022-09-12T06:48:09.547Z,17.6
2022-09-12T06:51:09.584Z,17.6
2022-09-12T06:54:09.571Z,17.9
2022-09-12T06:57:09.633Z,17.9
2022-09-12T07:00:09.704Z,18.6
2022-09-12T07:03:09.621Z,18.7
2022-09-12T07:06:09.550Z,18.7
2022-09-12T07:09:09.522Z,18.8
2022-09-12T07:12:09.512Z,19.3
2022-09-12T07:15:09.579Z,19.6
2022-09-12T07:18:09.528Z,20.1
2022-09-12T07:21:09.531Z,20.1
2022-09-12T07:24:09.537Z,20.8
2022-09-12T07:27:09.558Z,21.5
2022-09-12T07:30:09.556Z,21.6
2022-09-12T07:33:09.540Z,22
2022-09-12T07:36:09.654Z,22.1
2022-09-12T07:39:09.529Z,22.6
2022-09-12T07:42:09.565Z,22.8
2022-09-12T07:45:09.508Z,23.1
2022-09-12T07:48:09.627Z,23.4
2022-09-12T07:51:09.555Z,23.7
2022-09-12T07:54:09.562Z,23.9
2022-09-12T07:57:09.747Z,24.1
2022-09-12T08:00:09.558Z,23.9
2022-09-12T08:03:09.511Z,24.4
2022-09-12T08:06:09.514Z,24.5
2022-09-12T08:09:09.639Z,24.4
2022-09-12T08:12:09.563Z,24.3
2022-09-12T08:15:09.569Z,24.3
2022-09-12T08:18:09.565Z,24.6
2022-09-12T08:21:09.515Z,24.7
2022-09-12T08:24:09.532Z,24.1
2022-09-12T08:27:09.606Z,24.1
2022-09-12T08:30:09.542Z,24.6
2022-09-12T08:33:09.499Z,24.4
2022-09-12T08:36:09.515Z,24.5
2022-09-12T08:39:09.655Z,25.3
2022-09-12T08:45:09.543Z,25.5
2022-09-12T08:48:09.559Z,26.1
2022-09-12T08:51:09.512Z,26.4
2022-09-12T08:54:09.559Z,26.8
2022-09-12T08:57:09.518Z,27.2
2022-09-12T09:00:09.607Z,26.1
2022-09-12T09:03:09.522Z,25.9
2022-09-12T09:06:09.522Z,26.4
2022-09-12T09:09:09.551Z,26.7
2022-09-12T09:12:09.525Z,27
2022-09-12T09:15:09.563Z,26.8
2022-09-12T09:18:09.517Z,26.9
2022-09-12T09:21:09.512Z,27.2
2022-09-12T09:24:09.478Z,27.3
2022-09-12T09:27:41.871Z,27.9
2022-09-12T09:30:09.579Z,26.8
2022-09-12T09:33:09.550Z,25.3
2022-09-12T09:36:09.540Z,24.1
2022-09-12T09:39:09.531Z,23.3
2022-09-12T09:42:09.567Z,23.6
2022-09-12T09:45:09.549Z,24.3
2022-09-12T09:48:09.733Z,24.9
2022-09-12T09:51:09.492Z,25.4
2022-09-12T09:54:09.514Z,25.5
2022-09-12T09:57:09.499Z,25.4
2022-09-12T10:00:09.651Z,24.9
2022-09-12T10:03:14.080Z,25.1
2022-09-12T10:06:09.549Z,25.8
2022-09-12T10:09:09.554Z,26.2
2022-09-12T10:12:09.562Z,26.6
2022-09-12T10:15:09.539Z,26.6
2022-09-12T10:18:09.528Z,26.3
2022-09-12T10:21:09.534Z,26.2
2022-09-12T10:24:09.521Z,26.2
2022-09-12T10:27:09.538Z,26.2
2022-09-12T10:30:09.574Z,26.6
2022-09-12T10:33:09.498Z,26.7
2022-09-12T10:36:09.564Z,26.2
2022-09-12T10:39:09.554Z,25.7
2022-09-12T10:42:09.558Z,25.6
2022-09-12T10:45:09.512Z,25.7
2022-09-12T10:48:16.590Z,25.8
2022-09-12T10:51:09.513Z,25.6
2022-09-12T10:54:09.561Z,25.4
2022-09-12T10:57:09.666Z,25.3
2022-09-12T11:00:09.587Z,25.1
2022-09-12T11:03:09.498Z,25.3
2022-09-12T11:06:09.540Z,25.2
2022-09-12T11:09:09.550Z,25.3
2022-09-12T11:12:09.567Z,25.1
2022-09-12T11:15:09.587Z,25.6
2022-09-12T11:18:09.496Z,25.8
2022-09-12T11:21:09.550Z,26.1
2022-09-12T11:24:09.551Z,26.1
2022-09-12T11:27:09.608Z,26.2
2022-09-12T11:30:09.590Z,26.6
2022-09-12T11:33:09.536Z,26.8
2022-09-12T11:36:09.505Z,26.6
2022-09-12T11:39:09.511Z,26.5
2022-09-12T11:42:09.520Z,25.9
2022-09-12T11:45:09.535Z,26.3
2022-09-12T11:48:09.540Z,26.9
2022-09-12T11:51:09.585Z,26.9
2022-09-12T11:54:09.600Z,26.9
2022-09-12T11:57:09.495Z,26.4
2022-09-12T12:00:09.664Z,25.5
2022-09-12T12:03:09.522Z,25.2
2022-09-12T12:06:09.496Z,25.3
2022-09-12T12:09:09.561Z,25.2
2022-09-12T12:12:09.507Z,25.4
2022-09-12T12:15:09.610Z,24.9
2022-09-12T12:18:09.614Z,24.8
2022-09-12T12:21:09.616Z,25
2022-09-12T12:24:09.486Z,25.2
2022-09-12T12:27:09.563Z,25.2
2022-09-12T12:30:09.665Z,25.3
2022-09-12T12:33:09.558Z,25.1
2022-09-12T12:36:09.518Z,24.8
2022-09-12T12:39:09.515Z,25
2022-09-12T12:42:09.520Z,25
2022-09-12T12:45:09.534Z,24.7
2022-09-12T12:48:16.350Z,24.6
2022-09-12T12:51:09.541Z,24.6
2022-09-12T12:54:15.347Z,24.8
2022-09-12T12:57:09.514Z,24.6
2022-09-12T13:00:09.717Z,24.4
2022-09-12T13:03:09.515Z,24.1
2022-09-12T13:06:09.548Z,23.7
2022-09-12T13:09:09.587Z,23.7
2022-09-12T13:12:10.289Z,23.6
2022-09-12T13:15:09.536Z,23.7
2022-09-12T13:18:09.524Z,23.8
2022-09-12T13:21:09.561Z,23.9
2022-09-12T13:24:09.514Z,23.9
2022-09-12T13:27:09.543Z,24
2022-09-12T13:30:09.755Z,24.1
2022-09-12T13:33:09.594Z,24.3
2022-09-12T13:36:09.539Z,24.6
2022-09-12T13:39:09.585Z,24.8
2022-09-12T13:42:09.572Z,24.7
2022-09-12T13:45:09.474Z,24.6
2022-09-12T13:48:09.549Z,24.4
2022-09-12T13:51:09.509Z,24
2022-09-12T13:54:09.545Z,24.2
2022-09-12T13:57:09.637Z,23.9
2022-09-12T14:00:09.591Z,23.9
2022-09-12T14:03:09.578Z,24
2022-09-12T14:06:09.503Z,23.9
2022-09-12T14:09:09.637Z,23.7
2022-09-12T14:12:09.711Z,23.4
2022-09-12T14:15:09.584Z,23.2
2022-09-12T14:18:09.646Z,23.3
2022-09-12T14:21:09.496Z,23.9
2022-09-12T14:24:09.544Z,24.7
2022-09-12T14:27:09.556Z,25.1
2022-09-12T14:30:09.757Z,25.4
2022-09-12T14:33:09.572Z,25.5
2022-09-12T14:36:09.574Z,25
2022-09-12T14:39:09.586Z,25.3
2022-09-12T14:42:09.581Z,25.6
2022-09-12T14:45:09.633Z,25.6
2022-09-12T14:48:09.704Z,25.6
2022-09-12T14:51:09.532Z,25.6
2022-09-12T14:54:09.538Z,25.4
2022-09-12T14:57:09.609Z,25.1
2022-09-12T15:00:09.640Z,25.2
2022-09-12T15:03:09.540Z,25.1
2022-09-12T15:06:09.629Z,24.9
2022-09-12T15:09:09.590Z,24.8
2022-09-12T15:12:09.523Z,24.2
2022-09-12T15:15:09.613Z,23.9
2022-09-12T15:18:15.576Z,24.1
2022-09-12T15:21:09.630Z,24
2022-09-12T15:24:09.618Z,23.9
2022-09-12T15:27:09.554Z,23.8
2022-09-12T15:30:09.805Z,23.9
2022-09-12T15:33:09.571Z,23.7
2022-09-12T15:36:09.593Z,23.6
2022-09-12T15:39:09.611Z,23.4
2022-09-12T15:42:09.508Z,23.4
2022-09-12T15:45:11.814Z,23.7
2022-09-12T15:48:09.567Z,23.9
2022-09-12T15:51:12.376Z,24.2
2022-09-12T15:54:09.597Z,24.3
2022-09-12T15:57:09.551Z,24.6
2022-09-12T16:00:09.605Z,24.7
2022-09-12T16:03:10.363Z,24.6
2022-09-12T16:06:09.555Z,24.3
2022-09-12T16:09:11.652Z,24.5
2022-09-12T16:12:09.537Z,24.4
2022-09-12T16:15:09.496Z,23.9
2022-09-12T16:18:09.617Z,23.6
2022-09-12T16:21:15.383Z,23.3
2022-09-12T16:24:09.638Z,22.9
2022-09-12T16:27:10.585Z,22.7
2022-09-12T16:30:09.726Z,22.4
2022-09-12T16:33:09.586Z,22.1
2022-09-12T16:36:09.545Z,21.9
2022-09-12T16:39:09.499Z,21.7
2022-09-12T16:42:09.494Z,21.6
2022-09-12T16:45:09.543Z,21.6
2022-09-12T16:48:09.572Z,21.5
2022-09-12T16:51:09.535Z,21.3
2022-09-12T16:54:09.531Z,21.2
2022-09-12T16:57:09.562Z,20.9
2022-09-12T17:00:09.682Z,20.8
2022-09-12T17:03:09.813Z,20.8
2022-09-12T17:06:09.562Z,20.6
2022-09-12T17:09:09.567Z,20.4
2022-09-12T17:12:09.585Z,20.3
2022-09-12T17:15:09.595Z,20.1
2022-09-12T17:18:09.540Z,19.8
2022-09-12T17:21:09.520Z,19.6
2022-09-12T17:24:09.510Z,19.4
2022-09-12T17:27:09.463Z,19.3
2022-09-12T17:30:09.767Z,19
2022-09-12T17:33:09.501Z,18.8
2022-09-12T17:36:09.682Z,18.6
2022-09-12T17:39:09.439Z,18.4
2022-09-12T17:42:09.553Z,18.2
2022-09-12T17:45:09.567Z,18
2022-09-12T17:48:09.497Z,17.8
2022-09-12T17:51:09.507Z,17.6
2022-09-12T17:54:09.518Z,17.4
2022-09-12T17:57:09.520Z,17.2
2022-09-12T18:00:09.521Z,17
2022-09-12T18:03:09.830Z,16.8
2022-09-12T18:06:09.452Z,16.7
2022-09-12T18:09:09.500Z,16.5
2022-09-12T18:12:09.444Z,16.3
2022-09-12T18:15:09.459Z,16.2
2022-09-12T18:18:09.432Z,16.1
2022-09-12T18:21:09.450Z,15.9
2022-09-12T18:24:09.454Z,15.9
2022-09-12T18:27:09.462Z,15.8
2022-09-12T18:30:30.552Z,15.6
2022-09-12T18:33:09.517Z,15.6
2022-09-12T18:36:09.483Z,15.6
2022-09-12T18:39:09.495Z,15.4
2022-09-12T18:42:09.468Z,15.4
2022-09-12T18:45:09.522Z,15.2
2022-09-12T18:48:09.510Z,15.3
2022-09-12T18:51:09.514Z,15.2
2022-09-12T18:54:09.517Z,15.1
2022-09-12T18:57:09.498Z,15.1
2022-09-12T19:00:14.963Z,15
2022-09-12T19:03:09.443Z,14.9
2022-09-12T19:06:09.456Z,14.8
2022-09-12T19:09:16.693Z,14.7
2022-09-12T19:12:09.616Z,14.7
2022-09-12T19:15:09.547Z,14.7
2022-09-12T19:18:09.493Z,14.6
2022-09-12T19:21:09.494Z,14.5
2022-09-12T19:24:09.455Z,14.4
2022-09-12T19:27:09.512Z,14.3
2022-09-12T19:30:09.454Z,14.3
2022-09-12T19:33:09.484Z,14.1
2022-09-12T19:39:09.419Z,13.9
2022-09-12T19:42:09.490Z,13.9
2022-09-12T19:45:09.493Z,13.7
2022-09-12T19:48:09.478Z,13.6
2022-09-12T19:51:09.635Z,13.4
2022-09-12T19:54:09.522Z,13.4
2022-09-12T19:57:09.495Z,13.4
2022-09-12T20:00:09.529Z,13.4
2022-09-12T20:03:09.517Z,13.3
2022-09-12T20:06:09.442Z,13.3
2022-09-12T20:09:09.375Z,13.3
2022-09-12T20:12:09.398Z,13.2
2022-09-12T20:15:09.435Z,13.1
2022-09-12T20:18:09.391Z,13.1
2022-09-12T20:21:09.690Z,12.9
2022-09-12T20:24:09.439Z,12.8
2022-09-12T20:27:09.384Z,12.8
2022-09-12T20:30:09.438Z,12.8
2022-09-12T20:33:09.416Z,12.8
2022-09-12T20:36:09.419Z,12.9
2022-09-12T20:39:09.420Z,12.9
2022-09-12T20:42:09.371Z,12.9
2022-09-12T20:45:09.506Z,13
2022-09-12T20:48:09.442Z,13.1
2022-09-12T20:51:09.401Z,13.1
2022-09-12T20:54:09.377Z,13.2
2022-09-12T20:57:09.419Z,13.2
2022-09-12T21:00:09.489Z,13.1
2022-09-12T21:03:09.388Z,13.1
2022-09-12T21:06:09.453Z,13
2022-09-12T21:09:09.683Z,12.9
2022-09-12T21:12:09.399Z,12.6
2022-09-12T21:15:09.376Z,12.4
2022-09-12T21:18:09.401Z,12.4
2022-09-12T21:21:09.436Z,12.3
2022-09-12T21:24:09.384Z,12.3
2022-09-12T21:27:13.504Z,12.3
2022-09-12T21:30:09.407Z,12.3
2022-09-12T21:33:09.385Z,12.3
2022-09-12T21:36:09.406Z,12.4
2022-09-12T21:39:09.464Z,12.4
2022-09-12T21:42:09.563Z,12.4
2022-09-12T21:45:09.407Z,12.5
2022-09-12T21:48:09.424Z,12.6
2022-09-12T21:51:09.367Z,12.7
2022-09-12T21:54:09.421Z,12.8
2022-09-12T21:57:09.380Z,12.8
2022-09-12T22:00:09.562Z,12.8
2022-09-12T22:03:09.396Z,12.8
2022-09-12T22:06:09.363Z,12.8
2022-09-12T22:09:09.396Z,12.6
2022-09-12T22:12:09.371Z,12.5
2022-09-12T22:15:48.220Z,12.3
2022-09-12T22:18:09.440Z,12.2
2022-09-12T22:21:09.435Z,12.2
2022-09-12T22:24:09.424Z,12.2
2022-09-12T22:27:09.459Z,12.4
2022-09-12T22:30:09.498Z,12.5
2022-09-12T22:33:09.417Z,12.5
2022-09-12T22:36:09.483Z,12.6
2022-09-12T22:39:09.488Z,12.6
2022-09-12T22:42:09.487Z,12.6
2022-09-12T22:45:09.504Z,12.7
2022-09-12T22:48:15.749Z,12.7
2022-09-12T22:51:09.487Z,12.8
2022-09-12T22:54:09.456Z,12.7
2022-09-12T22:57:09.448Z,12.7
2022-09-12T23:00:09.557Z,12.6
2022-09-12T23:03:09.922Z,12.6
2022-09-12T23:06:09.493Z,12.5
2022-09-12T23:09:09.480Z,12.5
2022-09-12T23:12:09.541Z,12.6
2022-09-12T23:15:09.486Z,12.6
2022-09-12T23:18:11.592Z,12.6
2022-09-12T23:21:09.467Z,12.6
2022-09-12T23:24:09.440Z,12.6
2022-09-12T23:27:09.553Z,12.6
2022-09-12T23:30:09.483Z,12.6
2022-09-12T23:33:09.502Z,12.6
2022-09-12T23:36:09.530Z,12.6
2022-09-12T23:39:09.530Z,12.5
2022-09-12T23:42:09.530Z,12.4
2022-09-12T23:45:09.552Z,12.4
2022-09-12T23:48:09.504Z,12.4
2022-09-12T23:51:09.438Z,12.5
2022-09-12T23:54:09.536Z,12.5
2022-09-12T23:57:09.421Z,12.6
